createdAt,value
2022-12-27T01:11:34.670Z,30.58
2022-12-27T03:15:33.649Z,30.67
2022-12-27T03:16:33.593Z,30.67
2022-12-27T03:17:33.592Z,30.66
2022-12-27T03:18:33.582Z,30.67
2022-12-27T03:19:33.596Z,30.65
2022-12-27T03:20:33.563Z,30.63
2022-12-27T03:21:33.554Z,30.66
2022-12-27T03:22:33.555Z,30.64
2022-12-27T03:23:33.539Z,30.64
2022-12-27T03:24:33.532Z,30.64
2022-12-27T03:25:33.521Z,30.64
2022-12-27T04:05:33.192Z,30.66
2022-12-27T05:05:32.683Z,30.52
2022-12-27T05:06:32.707Z,30.51
2022-12-27T05:07:32.676Z,30.52
2022-12-27T05:08:32.674Z,30.50
2022-12-27T05:09:32.646Z,30.51
2022-12-27T05:10:32.641Z,30.50
2022-12-27T05:11:32.655Z,30.48
2022-12-27T05:12:32.624Z,30.48
2022-12-27T05:13:32.622Z,30.50
2022-12-27T05:14:32.613Z,30.47
2022-12-27T05:15:32.603Z,30.44
2022-12-27T05:16:32.708Z,30.43
2022-12-27T05:17:32.579Z,30.42
2022-12-27T05:18:32.572Z,30.42
2022-12-27T05:19:32.579Z,30.42
2022-12-27T05:20:32.557Z,30.42
2022-12-27T05:21:32.557Z,30.42
2022-12-27T05:22:32.545Z,30.41
2022-12-27T05:23:32.533Z,30.38
2022-12-27T05:24:32.522Z,30.40
2022-12-27T05:25:32.519Z,30.37
2022-12-27T05:26:32.507Z,30.40
2022-12-27T05:27:32.521Z,30.40
2022-12-27T05:28:32.491Z,30.42
2022-12-27T05:29:32.488Z,30.42
2022-12-27T05:30:32.479Z,30.42
2022-12-27T05:31:32.500Z,30.39
2022-12-27T05:32:32.454Z,30.40
2022-12-27T05:33:32.464Z,30.40
2022-12-27T05:34:32.440Z,30.41
2022-12-27T05:35:32.434Z,30.37
2022-12-27T05:36:32.431Z,30.37
2022-12-27T05:37:32.413Z,30.38
2022-12-27T05:38:32.409Z,30.39
2022-12-27T05:39:32.402Z,30.40
2022-12-27T05:40:32.387Z,30.39
2022-12-27T05:41:32.385Z,30.39
2022-12-27T05:42:32.371Z,30.38
2022-12-27T05:43:32.394Z,30.40
2022-12-27T05:44:32.375Z,30.39
2022-12-27T05:45:32.349Z,30.39
2022-12-27T05:46:32.365Z,30.39
2022-12-27T05:47:32.439Z,30.39
2022-12-27T05:48:32.323Z,30.36
2022-12-27T05:49:32.312Z,30.35
2022-12-27T05:50:32.307Z,30.36
2022-12-27T05:51:32.302Z,30.33
2022-12-27T05:52:36.183Z,30.33
2022-12-27T05:53:32.287Z,30.35
2022-12-27T05:54:32.299Z,30.37
2022-12-27T05:55:32.268Z,30.33
2022-12-27T05:56:32.262Z,30.34
2022-12-27T05:57:32.268Z,30.32
2022-12-27T05:58:32.266Z,30.35
2022-12-27T05:59:32.258Z,30.34
2022-12-27T06:00:32.231Z,30.34
2022-12-27T06:01:32.365Z,30.34
2022-12-27T06:02:32.418Z,30.35
2022-12-27T06:03:32.400Z,30.36
2022-12-27T06:04:32.190Z,30.32
2022-12-27T06:05:32.182Z,30.33
2022-12-27T06:06:32.177Z,30.31
2022-12-27T06:07:32.161Z,30.33
2022-12-27T06:08:32.161Z,30.33
2022-12-27T06:09:32.151Z,30.33
2022-12-27T06:10:32.144Z,30.34
2022-12-27T06:11:32.134Z,30.32
2022-12-27T06:12:32.127Z,30.34
2022-12-27T06:13:32.119Z,30.31
2022-12-27T06:14:32.108Z,30.32
2022-12-27T06:15:32.119Z,30.31
2022-12-27T06:16:32.094Z,30.31
2022-12-27T06:17:32.105Z,30.32
2022-12-27T06:18:32.073Z,30.32
2022-12-27T06:19:32.068Z,30.33
2022-12-27T06:20:32.070Z,30.33
2022-12-27T06:21:32.072Z,30.33
2022-12-27T06:22:32.051Z,30.32
2022-12-27T06:23:32.036Z,30.36
2022-12-27T06:24:32.026Z,30.35
2022-12-27T06:25:32.018Z,30.35
2022-12-27T06:26:32.009Z,30.34
2022-12-27T06:27:32.000Z,30.36
2022-12-27T06:28:31.994Z,30.36
2022-12-27T06:29:31.976Z,30.35
2022-12-27T06:30:36.133Z,30.36
2022-12-27T06:31:32.040Z,30.37
2022-12-27T06:32:31.966Z,30.38
2022-12-27T06:33:31.958Z,30.36
2022-12-27T06:34:31.948Z,30.37
2022-12-27T06:35:31.942Z,30.36
2022-12-27T06:36:31.939Z,30.37
2022-12-27T06:37:31.921Z,30.38
2022-12-27T06:38:31.915Z,30.38
2022-12-27T06:39:31.909Z,30.40
2022-12-27T06:40:31.900Z,30.38
2022-12-27T06:41:31.895Z,30.39
2022-12-27T06:42:31.894Z,30.38
2022-12-27T06:43:31.880Z,30.39
2022-12-27T06:44:31.868Z,30.39
2022-12-27T06:45:31.927Z,30.38
2022-12-27T06:46:31.854Z,30.39
2022-12-27T06:47:31.872Z,30.38
2022-12-27T06:48:31.883Z,30.39
2022-12-27T06:49:31.847Z,30.39
2022-12-27T06:50:31.823Z,30.38
2022-12-27T06:51:31.807Z,30.38
2022-12-27T06:52:31.798Z,30.37
2022-12-27T06:53:31.801Z,30.37
2022-12-27T06:54:31.794Z,30.37
2022-12-27T06:55:31.782Z,30.35
2022-12-27T06:56:31.787Z,30.37
2022-12-27T06:57:31.763Z,30.37
2022-12-27T06:58:31.751Z,30.37
2022-12-27T06:59:31.753Z,30.40
2022-12-27T07:00:31.732Z,30.39
2022-12-27T07:01:31.869Z,30.38
2022-12-27T07:02:32.127Z,30.38
2022-12-27T07:03:31.749Z,30.39
2022-12-27T07:04:31.713Z,30.37
2022-12-27T07:05:31.710Z,30.39
2022-12-27T07:06:31.720Z,30.39
2022-12-27T07:07:31.675Z,30.39
2022-12-27T07:08:31.676Z,30.40
2022-12-27T07:09:31.654Z,30.39
2022-12-27T07:10:31.675Z,30.41
2022-12-27T07:11:31.659Z,30.37
2022-12-27T07:12:36.512Z,30.39
2022-12-27T07:13:31.623Z,30.40
2022-12-27T07:14:31.637Z,30.38
2022-12-27T07:15:31.620Z,30.38
2022-12-27T07:16:31.686Z,30.38
2022-12-27T07:17:31.636Z,30.40
2022-12-27T07:18:31.589Z,30.42
2022-12-27T07:19:31.605Z,30.40
2022-12-27T07:20:31.581Z,30.41
2022-12-27T07:21:31.558Z,30.42
2022-12-27T07:22:31.561Z,30.41
2022-12-27T07:23:31.538Z,30.40
2022-12-27T07:24:31.535Z,30.40
2022-12-27T07:25:31.531Z,30.40
2022-12-27T07:26:31.546Z,30.40
2022-12-27T07:27:31.515Z,30.42
2022-12-27T07:28:31.493Z,30.40
2022-12-27T07:29:31.500Z,30.41
2022-12-27T07:30:31.481Z,30.41
2022-12-27T07:31:31.542Z,30.40
2022-12-27T07:32:31.475Z,30.39
2022-12-27T07:33:31.466Z,30.40
2022-12-27T07:34:31.458Z,30.41
2022-12-27T07:35:31.461Z,30.39
2022-12-27T07:36:31.514Z,30.39
2022-12-27T07:37:31.432Z,30.39
2022-12-27T07:38:31.409Z,30.40
2022-12-27T07:39:31.405Z,30.39
2022-12-27T07:40:31.395Z,30.40
2022-12-27T07:41:31.396Z,30.41
2022-12-27T07:42:31.379Z,30.39
2022-12-27T07:43:31.370Z,30.40
2022-12-27T07:44:31.401Z,30.41
2022-12-27T07:45:31.423Z,30.39
2022-12-27T07:46:31.343Z,30.38
2022-12-27T07:47:31.343Z,30.41
2022-12-27T07:48:31.326Z,30.41
2022-12-27T07:49:31.324Z,30.40
2022-12-27T07:50:31.312Z,30.42
2022-12-27T07:51:31.349Z,30.38
2022-12-27T07:52:31.286Z,30.41
2022-12-27T07:53:31.281Z,30.40
2022-12-27T07:54:31.281Z,30.40
2022-12-27T07:55:31.263Z,30.39
2022-12-27T07:56:31.259Z,30.40
2022-12-27T07:57:31.246Z,30.40
2022-12-27T07:58:31.240Z,30.39
2022-12-27T07:59:31.234Z,30.42
2022-12-27T08:00:31.218Z,30.41
2022-12-27T08:01:31.352Z,30.43
2022-12-27T08:02:31.236Z,30.40
2022-12-27T08:03:31.219Z,30.41
2022-12-27T08:04:31.184Z,30.40
2022-12-27T08:05:31.182Z,30.39
2022-12-27T08:06:31.170Z,30.41
2022-12-27T08:07:31.184Z,30.38
2022-12-27T08:08:31.149Z,30.40
2022-12-27T08:09:31.154Z,30.39
2022-12-27T08:10:31.133Z,30.38
2022-12-27T08:11:31.145Z,30.39
2022-12-27T08:12:31.113Z,30.40
2022-12-27T08:13:31.106Z,30.39
2022-12-27T08:14:31.094Z,30.41
2022-12-27T08:15:31.090Z,30.39
2022-12-27T08:16:31.170Z,30.39
2022-12-27T08:17:31.104Z,30.39
2022-12-27T08:18:31.063Z,30.39
2022-12-27T08:19:31.057Z,30.40
2022-12-27T08:20:31.045Z,30.39
2022-12-27T08:21:31.040Z,30.37
2022-12-27T08:22:31.042Z,30.36
2022-12-27T08:23:31.066Z,30.38
2022-12-27T08:24:31.022Z,30.39
2022-12-27T08:25:31.026Z,30.38
2022-12-27T08:26:31.000Z,30.39
2022-12-27T08:27:30.990Z,30.39
2022-12-27T08:28:30.982Z,30.38
2022-12-27T08:29:30.972Z,30.38
2022-12-27T08:30:31.055Z,30.40
2022-12-27T08:31:30.957Z,30.40
2022-12-27T08:32:30.954Z,30.36
2022-12-27T08:33:30.943Z,30.37
2022-12-27T08:34:30.935Z,30.38
2022-12-27T08:35:52.201Z,30.37
2022-12-27T08:36:55.050Z,30.38
2022-12-27T08:39:30.907Z,30.37
2022-12-27T19:22:25.294Z,30.02
2022-12-27T19:23:25.287Z,30.03
2022-12-27T19:24:25.282Z,30.02
2022-12-27T19:25:25.270Z,30.02
2022-12-27T19:26:25.257Z,30.03
2022-12-27T19:27:25.259Z,30.01
2022-12-27T19:28:25.250Z,30.00
2022-12-27T19:29:25.252Z,30.00
2022-12-27T19:30:25.224Z,30.01
2022-12-27T19:31:25.281Z,29.98
2022-12-27T19:32:25.214Z,30.00
2022-12-27T19:33:25.217Z,29.98
2022-12-27T19:34:25.188Z,29.99
2022-12-27T19:35:25.209Z,29.97
2022-12-27T19:36:25.171Z,30.00
2022-12-27T19:37:25.159Z,30.00
2022-12-27T19:38:25.180Z,29.99
2022-12-27T19:39:25.143Z,30.00
2022-12-27T19:40:25.136Z,29.99
2022-12-27T19:41:25.128Z,30.01
2022-12-27T19:42:25.118Z,30.01
2022-12-27T19:43:25.116Z,30.02
2022-12-27T19:44:25.098Z,29.99
2022-12-27T19:45:25.086Z,30.00
2022-12-27T19:46:30.683Z,30.00
2022-12-27T19:47:25.075Z,30.02
2022-12-27T19:48:25.059Z,30.01
2022-12-27T19:49:43.023Z,29.99
2022-12-27T19:50:25.046Z,30.00
2022-12-27T19:51:25.065Z,30.01
2022-12-27T19:52:25.030Z,30.00
2022-12-27T19:53:25.028Z,29.98
2022-12-27T19:54:25.014Z,29.98
2022-12-27T19:55:25.020Z,29.99
2022-12-27T19:56:24.993Z,29.99
2022-12-27T19:57:24.983Z,29.98
2022-12-27T19:58:24.976Z,29.99
2022-12-27T19:59:25.227Z,29.98
2022-12-27T20:00:24.963Z,29.96
2022-12-27T20:01:25.066Z,29.96
2022-12-27T20:02:25.231Z,29.99
2022-12-27T20:03:25.020Z,29.98
2022-12-27T20:04:24.975Z,29.98
2022-12-27T20:06:14.035Z,29.96
2022-12-27T20:06:28.186Z,29.97
2022-12-27T20:07:24.918Z,29.98
2022-12-27T20:08:24.890Z,29.96
2022-12-27T20:09:24.915Z,29.96
2022-12-27T20:10:24.864Z,29.95
2022-12-27T20:11:24.865Z,29.96
2022-12-27T20:12:24.851Z,29.94
2022-12-27T20:13:24.835Z,29.97
2022-12-27T20:14:24.831Z,29.95
2022-12-27T20:15:24.823Z,29.95
2022-12-27T20:16:24.832Z,29.96
2022-12-27T20:17:24.811Z,29.93
2022-12-27T20:18:24.797Z,29.94
2022-12-27T20:19:24.794Z,29.94
2022-12-27T20:20:24.777Z,29.95
2022-12-27T20:21:24.776Z,29.93
2022-12-27T20:22:24.761Z,29.95
2022-12-27T20:23:24.779Z,29.95
2022-12-27T20:24:24.748Z,29.95
2022-12-27T20:25:24.731Z,29.93
2022-12-27T20:26:24.732Z,29.94
2022-12-27T20:27:24.721Z,29.95
2022-12-27T20:28:24.708Z,29.92
2022-12-27T20:29:24.700Z,29.93
2022-12-27T20:30:24.690Z,29.91
2022-12-27T20:31:24.741Z,29.90
2022-12-27T20:32:24.672Z,29.94
2022-12-27T20:33:24.669Z,29.93
2022-12-27T20:34:24.660Z,29.93
2022-12-27T20:35:24.644Z,29.92
2022-12-27T20:36:24.651Z,29.92
2022-12-27T20:37:25.143Z,29.96
2022-12-27T20:38:24.618Z,29.93
2022-12-27T20:39:24.641Z,29.93
2022-12-27T20:40:24.613Z,29.93
2022-12-27T20:41:24.596Z,29.90
2022-12-27T20:42:24.604Z,29.93
2022-12-27T20:43:24.578Z,29.91
2022-12-27T20:44:24.567Z,29.94
2022-12-27T20:45:24.599Z,29.93
2022-12-27T20:46:24.604Z,29.90
2022-12-27T20:47:24.545Z,29.91
2022-12-27T20:48:24.536Z,29.91
2022-12-27T20:49:24.533Z,29.93
2022-12-27T20:50:24.519Z,29.93
2022-12-27T20:51:24.511Z,29.92
2022-12-27T20:52:30.838Z,29.93
2022-12-27T20:53:24.495Z,29.93
2022-12-27T20:54:24.481Z,29.93
2022-12-27T20:55:24.510Z,29.93
2022-12-27T20:56:24.471Z,29.93
2022-12-27T20:57:24.468Z,29.91
2022-12-27T20:58:24.442Z,29.92
2022-12-27T20:59:24.447Z,29.91
2022-12-27T21:00:24.428Z,29.93
2022-12-27T21:02:24.679Z,29.90
2022-12-27T21:03:24.479Z,29.90
2022-12-27T21:04:24.405Z,29.93
2022-12-27T21:05:24.388Z,29.92
2022-12-27T21:06:24.378Z,29.89
2022-12-27T21:07:24.376Z,29.91
2022-12-27T21:08:24.363Z,29.91
2022-12-27T21:09:24.390Z,29.91
2022-12-27T21:10:24.348Z,29.92
2022-12-27T21:11:24.412Z,29.91
2022-12-27T21:12:24.332Z,29.92
2022-12-27T21:13:24.315Z,29.90
2022-12-27T21:14:24.308Z,29.90
2022-12-27T21:15:24.302Z,29.91
2022-12-27T21:16:24.365Z,29.94
2022-12-27T21:17:24.291Z,29.93
2022-12-27T21:18:24.275Z,29.90
2022-12-27T21:19:24.270Z,29.92
2022-12-27T21:20:24.259Z,29.93
2022-12-27T21:21:27.642Z,29.90
2022-12-27T21:22:24.247Z,29.92
2022-12-27T21:23:24.236Z,29.90
2022-12-27T21:24:24.223Z,29.93
2022-12-27T21:25:24.218Z,29.91
2022-12-27T21:26:24.209Z,29.91
2022-12-27T21:27:24.224Z,29.91
2022-12-27T21:28:24.192Z,29.89
2022-12-27T21:29:24.181Z,29.90
2022-12-27T21:30:24.172Z,29.90
2022-12-27T21:31:24.260Z,29.90
2022-12-27T21:32:24.157Z,29.87
2022-12-27T21:33:24.147Z,29.87
2022-12-27T21:34:24.149Z,29.89
2022-12-27T21:35:24.130Z,29.90
2022-12-27T21:36:24.147Z,29.90
2022-12-27T21:37:24.129Z,29.90
2022-12-27T21:38:24.112Z,29.89
2022-12-27T21:39:24.123Z,29.90
2022-12-27T21:40:24.088Z,29.92
2022-12-27T21:41:24.125Z,29.90
2022-12-27T21:42:24.070Z,29.89
2022-12-27T21:43:24.081Z,29.87
2022-12-27T21:44:24.063Z,29.88
2022-12-27T21:45:24.045Z,29.91
2022-12-27T21:46:24.093Z,29.90
2022-12-27T21:47:24.031Z,29.90
2022-12-27T21:48:24.011Z,29.90
2022-12-27T21:49:24.042Z,29.91
2022-12-27T21:50:24.000Z,29.89
2022-12-27T21:51:23.996Z,29.90
2022-12-27T21:52:23.977Z,29.90
2022-12-27T21:53:23.969Z,29.89
2022-12-27T21:54:23.965Z,29.89
2022-12-27T21:55:23.952Z,29.89
2022-12-27T21:56:23.950Z,29.88
2022-12-27T21:57:23.948Z,29.90
2022-12-27T21:58:23.925Z,29.89
2022-12-27T21:59:23.944Z,29.87
2022-12-27T22:00:23.907Z,29.88
2022-12-27T22:01:24.003Z,29.89
2022-12-27T22:02:24.182Z,29.87
2022-12-27T22:03:24.089Z,29.87
2022-12-27T22:04:23.876Z,29.89
2022-12-27T22:05:23.860Z,29.89
2022-12-27T22:06:23.860Z,29.88
2022-12-27T22:07:23.847Z,29.90
2022-12-27T22:08:23.841Z,29.87
2022-12-27T22:09:23.831Z,29.88
2022-12-27T22:10:23.822Z,29.88
2022-12-27T22:11:23.810Z,29.86
2022-12-27T22:12:23.806Z,29.87
2022-12-27T22:13:23.789Z,29.85
2022-12-27T22:14:25.737Z,29.87
2022-12-27T22:15:23.798Z,29.87
2022-12-27T22:16:23.771Z,29.86
2022-12-27T22:17:23.767Z,29.85
2022-12-27T22:18:23.750Z,29.84
2022-12-27T22:19:23.794Z,29.85
2022-12-27T22:20:23.728Z,29.83
2022-12-27T22:21:23.721Z,29.84
2022-12-27T22:22:23.718Z,29.82
2022-12-27T22:23:23.713Z,29.84
2022-12-27T22:24:23.698Z,29.86
2022-12-27T22:25:23.689Z,29.82
2022-12-27T22:26:23.691Z,29.84
2022-12-27T22:27:23.667Z,29.83
2022-12-27T22:28:23.658Z,29.83
2022-12-27T22:29:23.672Z,29.84
2022-12-27T22:30:23.639Z,29.83
2022-12-27T22:31:23.744Z,29.83
2022-12-27T22:32:23.664Z,29.85
2022-12-27T22:33:23.614Z,29.83
2022-12-27T22:34:23.605Z,29.83
2022-12-27T22:35:23.593Z,29.82
2022-12-27T22:36:23.585Z,29.84
2022-12-27T22:37:23.572Z,29.81
2022-12-27T22:38:23.572Z,29.84
2022-12-27T22:39:23.562Z,29.84
2022-12-27T22:40:30.621Z,29.81
2022-12-27T22:41:23.534Z,29.83
2022-12-27T22:42:23.526Z,29.82
2022-12-27T22:43:23.527Z,29.80
2022-12-27T22:44:23.513Z,29.82
2022-12-27T22:45:23.505Z,29.83
2022-12-27T22:46:23.536Z,29.81
2022-12-27T22:47:26.922Z,29.82
2022-12-27T22:48:23.477Z,29.81
2022-12-27T22:49:23.509Z,29.81
2022-12-27T22:50:23.458Z,29.81
2022-12-27T22:51:23.460Z,29.80
2022-12-27T22:52:23.444Z,29.82
2022-12-27T22:53:23.441Z,29.79
2022-12-27T22:55:05.688Z,29.80
2022-12-27T22:55:23.413Z,29.82
2022-12-27T22:56:23.416Z,29.82
2022-12-27T22:57:23.396Z,29.81
2022-12-27T22:58:23.394Z,29.80
2022-12-27T22:59:23.378Z,29.79
2022-12-27T23:00:23.376Z,29.80
2022-12-27T23:01:23.599Z,29.81
2022-12-27T23:02:23.458Z,29.79
2022-12-27T23:03:23.367Z,29.81
2022-12-27T23:04:23.407Z,29.80
2022-12-27T23:05:23.325Z,29.79
2022-12-27T23:06:23.315Z,29.80
2022-12-27T23:08:05.296Z,29.78
2022-12-27T23:08:23.309Z,29.83
2022-12-27T23:09:23.287Z,29.80
2022-12-27T23:10:23.279Z,29.78
2022-12-27T23:11:23.269Z,29.80
2022-12-27T23:12:23.264Z,29.78
2022-12-27T23:13:23.258Z,29.79
2022-12-27T23:14:23.246Z,29.80
2022-12-27T23:15:23.272Z,29.80
2022-12-27T23:16:23.379Z,29.77
2022-12-27T23:17:23.218Z,29.77
2022-12-27T23:18:23.213Z,29.78
2022-12-27T23:19:23.227Z,29.77
2022-12-27T23:20:23.197Z,29.78
2022-12-27T23:21:23.876Z,29.78
2022-12-27T23:22:23.196Z,29.75
2022-12-27T23:23:23.167Z,29.78
2022-12-27T23:24:23.162Z,29.78
2022-12-27T23:25:23.157Z,29.77
2022-12-27T23:26:23.155Z,29.77
2022-12-27T23:27:23.130Z,29.75
2022-12-27T23:28:23.122Z,29.76
2022-12-27T23:29:23.120Z,29.75
2022-12-27T23:30:23.127Z,29.75
2022-12-27T23:31:23.192Z,29.76
2022-12-27T23:32:23.098Z,29.76
2022-12-27T23:33:23.107Z,29.77
2022-12-27T23:34:27.796Z,29.77
2022-12-27T23:35:23.094Z,29.78
2022-12-27T23:36:23.062Z,29.77
2022-12-27T23:37:23.043Z,29.77
2022-12-27T23:38:23.031Z,29.78
2022-12-27T23:39:23.029Z,29.77
2022-12-27T23:40:23.031Z,29.78
2022-12-27T23:41:23.012Z,29.77
2022-12-27T23:42:22.996Z,29.77
2022-12-27T23:43:51.134Z,29.77
2022-12-27T23:44:33.800Z,29.79
2022-12-27T23:45:22.977Z,29.80
2022-12-27T23:46:23.035Z,29.80
2022-12-27T23:47:22.954Z,29.78
2022-12-27T23:48:22.948Z,29.79
2022-12-27T23:49:22.937Z,29.79
2022-12-27T23:50:22.940Z,29.76
2022-12-27T23:51:23.014Z,29.80
2022-12-27T23:52:22.917Z,29.80
2022-12-27T23:53:22.899Z,29.76
2022-12-27T23:54:22.904Z,29.75
2022-12-27T23:55:22.885Z,29.76
2022-12-27T23:56:22.880Z,29.78
2022-12-27T23:57:23.069Z,29.75
2022-12-27T23:58:22.868Z,29.76
2022-12-27T23:59:22.858Z,29.74
